sensor_id;sensor_type;location;lat;lon;timestamp;P1;durP1;ratioP1;P2;durP2;ratioP2
3571;SDS011;7958;53.024;12.970;2023-12-14T00:00:50;9.07;;;6.03;;
3571;SDS011;7958;53.024;12.970;2023-12-14T00:03:16;7.80;;;5.57;;
3571;SDS011;7958;53.024;12.970;2023-12-14T00:05:44;11.90;;;6.67;;
3571;SDS011;7958;53.024;12.970;2023-12-14T00:08:10;13.83;;;6.60;;
3571;SDS011;7958;53.024;12.970;2023-12-14T00:10:37;10.23;;;6.10;;
3571;SDS011;7958;53.024;12.970;2023-12-14T00:13:03;9.27;;;7.20;;
3571;SDS011;7958;53.024;12.970;2023-12-14T00:15:31;9.90;;;6.60;;
3571;SDS011;7958;53.024;12.970;2023-12-14T00:17:57;12.87;;;7.30;;
3571;SDS011;7958;53.024;12.970;2023-12-14T00:20:24;11.03;;;6.27;;
3571;SDS011;7958;53.024;12.970;2023-12-14T00:22:52;17.97;;;7.17;;
3571;SDS011;7958;53.024;12.970;2023-12-14T00:25:18;14.90;;;7.10;;
3571;SDS011;7958;53.024;12.970;2023-12-14T00:27:44;16.57;;;7.67;;
3571;SDS011;7958;53.024;12.970;2023-12-14T00:30:11;12.00;;;7.63;;
3571;SDS011;7958;53.024;12.970;2023-12-14T00:32:38;15.30;;;7.63;;
3571;SDS011;7958;53.024;12.970;2023-12-14T00:35:04;14.43;;;8.63;;
3571;SDS011;7958;53.024;12.970;2023-12-14T00:37:31;13.00;;;7.00;;
3571;SDS011;7958;53.024;12.970;2023-12-14T00:39:58;17.37;;;7.80;;
3571;SDS011;7958;53.024;12.970;2023-12-14T00:42:25;21.40;;;7.60;;
3571;SDS011;7958;53.024;12.970;2023-12-14T00:44:51;13.13;;;7.50;;
3571;SDS011;7958;53.024;12.970;2023-12-14T00:47:17;12.10;;;7.07;;
3571;SDS011;7958;53.024;12.970;2023-12-14T00:49:44;11.23;;;6.63;;
3571;SDS011;7958;53.024;12.970;2023-12-14T00:52:10;15.47;;;7.90;;
3571;SDS011;7958;53.024;12.970;2023-12-14T00:54:36;10.57;;;7.03;;
3571;SDS011;7958;53.024;12.970;2023-12-14T00:57:04;15.27;;;7.70;;
3571;SDS011;7958;53.024;12.970;2023-12-14T00:59:31;12.73;;;7.33;;
3571;SDS011;7958;53.024;12.970;2023-12-14T01:01:57;19.93;;;7.50;;
3571;SDS011;7958;53.024;12.970;2023-12-14T01:04:24;11.47;;;7.83;;
3571;SDS011;7958;53.024;12.970;2023-12-14T01:06:50;15.50;;;7.30;;
3571;SDS011;7958;53.024;12.970;2023-12-14T01:09:16;17.23;;;8.07;;
3571;SDS011;7958;53.024;12.970;2023-12-14T01:11:43;14.40;;;8.07;;
3571;SDS011;7958;53.024;12.970;2023-12-14T01:14:10;15.63;;;8.50;;
3571;SDS011;7958;53.024;12.970;2023-12-14T01:16:37;17.67;;;8.27;;
3571;SDS011;7958;53.024;12.970;2023-12-14T01:19:03;12.37;;;8.10;;
3571;SDS011;7958;53.024;12.970;2023-12-14T01:21:30;15.30;;;7.67;;
3571;SDS011;7958;53.024;12.970;2023-12-14T01:23:57;17.00;;;8.57;;
3571;SDS011;7958;53.024;12.970;2023-12-14T01:26:23;15.80;;;8.93;;
3571;SDS011;7958;53.024;12.970;2023-12-14T01:28:49;12.60;;;8.17;;
3571;SDS011;7958;53.024;12.970;2023-12-14T01:31:17;15.07;;;9.10;;
3571;SDS011;7958;53.024;12.970;2023-12-14T01:33:43;18.37;;;9.13;;
3571;SDS011;7958;53.024;12.970;2023-12-14T01:36:10;19.23;;;8.50;;
3571;SDS011;7958;53.024;12.970;2023-12-14T01:38:37;16.47;;;9.10;;
3571;SDS011;7958;53.024;12.970;2023-12-14T01:41:03;20.10;;;9.07;;
3571;SDS011;7958;53.024;12.970;2023-12-14T01:43:30;21.73;;;8.50;;
3571;SDS011;7958;53.024;12.970;2023-12-14T01:45:56;18.33;;;9.00;;
3571;SDS011;7958;53.024;12.970;2023-12-14T01:48:24;14.93;;;9.33;;
3571;SDS011;7958;53.024;12.970;2023-12-14T01:50:50;19.40;;;9.50;;
3571;SDS011;7958;53.024;12.970;2023-12-14T01:53:17;18.33;;;9.47;;
3571;SDS011;7958;53.024;12.970;2023-12-14T01:55:43;20.77;;;8.93;;
3571;SDS011;7958;53.024;12.970;2023-12-14T01:58:09;18.47;;;8.67;;
3571;SDS011;7958;53.024;12.970;2023-12-14T02:00:36;22.10;;;10.17;;
3571;SDS011;7958;53.024;12.970;2023-12-14T02:03:05;25.40;;;9.80;;
3571;SDS011;7958;53.024;12.970;2023-12-14T02:05:33;17.40;;;9.30;;
3571;SDS011;7958;53.024;12.970;2023-12-14T02:07:59;20.10;;;10.03;;
3571;SDS011;7958;53.024;12.970;2023-12-14T02:10:26;18.40;;;9.80;;
3571;SDS011;7958;53.024;12.970;2023-12-14T02:12:52;17.80;;;9.30;;
3571;SDS011;7958;53.024;12.970;2023-12-14T02:15:18;19.50;;;9.60;;
3571;SDS011;7958;53.024;12.970;2023-12-14T02:17:45;16.70;;;10.00;;
3571;SDS011;7958;53.024;12.970;2023-12-14T02:20:11;20.30;;;9.20;;
3571;SDS011;7958;53.024;12.970;2023-12-14T02:22:49;15.80;;;8.80;;
3571;SDS011;7958;53.024;12.970;2023-12-14T02:25:16;21.50;;;9.93;;
3571;SDS011;7958;53.024;12.970;2023-12-14T02:27:42;18.77;;;9.00;;
3571;SDS011;7958;53.024;12.970;2023-12-14T02:30:09;19.83;;;9.03;;
3571;SDS011;7958;53.024;12.970;2023-12-14T02:32:36;20.57;;;9.33;;
3571;SDS011;7958;53.024;12.970;2023-12-14T02:35:03;16.00;;;8.80;;
3571;SDS011;7958;53.024;12.970;2023-12-14T02:37:30;19.23;;;9.77;;
3571;SDS011;7958;53.024;12.970;2023-12-14T02:39:59;25.27;;;10.10;;
3571;SDS011;7958;53.024;12.970;2023-12-14T02:42:25;18.73;;;10.00;;
3571;SDS011;7958;53.024;12.970;2023-12-14T02:44:52;18.60;;;9.70;;
3571;SDS011;7958;53.024;12.970;2023-12-14T02:47:19;22.20;;;9.90;;
3571;SDS011;7958;53.024;12.970;2023-12-14T02:49:45;21.03;;;9.80;;
3571;SDS011;7958;53.024;12.970;2023-12-14T02:52:12;22.90;;;11.30;;
3571;SDS011;7958;53.024;12.970;2023-12-14T02:54:38;18.17;;;10.27;;
3571;SDS011;7958;53.024;12.970;2023-12-14T02:57:07;20.87;;;10.03;;
3571;SDS011;7958;53.024;12.970;2023-12-14T02:59:33;22.40;;;10.23;;
3571;SDS011;7958;53.024;12.970;2023-12-14T03:01:59;26.30;;;10.23;;
3571;SDS011;7958;53.024;12.970;2023-12-14T03:04:26;18.93;;;9.43;;
3571;SDS011;7958;53.024;12.970;2023-12-14T03:06:52;20.17;;;10.63;;
3571;SDS011;7958;53.024;12.970;2023-12-14T03:09:19;23.47;;;10.37;;
3571;SDS011;7958;53.024;12.970;2023-12-14T03:11:45;19.70;;;11.33;;
3571;SDS011;7958;53.024;12.970;2023-12-14T03:14:14;21.20;;;11.40;;
3571;SDS011;7958;53.024;12.970;2023-12-14T03:16:40;19.47;;;10.30;;
3571;SDS011;7958;53.024;12.970;2023-12-14T03:19:06;20.23;;;9.90;;
3571;SDS011;7958;53.024;12.970;2023-12-14T03:21:33;21.40;;;10.17;;
3571;SDS011;7958;53.024;12.970;2023-12-14T03:23:59;24.53;;;10.27;;
3571;SDS011;7958;53.024;12.970;2023-12-14T03:26:25;24.50;;;11.83;;
3571;SDS011;7958;53.024;12.970;2023-12-14T03:28:52;21.90;;;10.87;;
3571;SDS011;7958;53.024;12.970;2023-12-14T03:31:20;21.10;;;10.10;;
3571;SDS011;7958;53.024;12.970;2023-12-14T03:33:46;25.93;;;10.93;;
3571;SDS011;7958;53.024;12.970;2023-12-14T03:36:12;22.73;;;10.50;;
3571;SDS011;7958;53.024;12.970;2023-12-14T03:38:39;19.50;;;9.80;;
3571;SDS011;7958;53.024;12.970;2023-12-14T03:41:05;20.30;;;10.07;;
3571;SDS011;7958;53.024;12.970;2023-12-14T03:43:31;18.90;;;9.70;;
3571;SDS011;7958;53.024;12.970;2023-12-14T03:45:58;16.67;;;9.93;;
3571;SDS011;7958;53.024;12.970;2023-12-14T03:48:25;20.87;;;10.70;;
3571;SDS011;7958;53.024;12.970;2023-12-14T03:50:52;16.40;;;9.90;;
3571;SDS011;7958;53.024;12.970;2023-12-14T03:53:18;17.50;;;9.20;;
3571;SDS011;7958;53.024;12.970;2023-12-14T03:55:45;17.37;;;9.67;;
3571;SDS011;7958;53.024;12.970;2023-12-14T03:58:12;21.67;;;10.80;;
3571;SDS011;7958;53.024;12.970;2023-12-14T04:00:38;20.47;;;10.23;;
3571;SDS011;7958;53.024;12.970;2023-12-14T04:03:05;20.13;;;10.37;;
3571;SDS011;7958;53.024;12.970;2023-12-14T04:05:32;18.60;;;9.20;;
3571;SDS011;7958;53.024;12.970;2023-12-14T04:07:59;13.53;;;8.60;;
3571;SDS011;7958;53.024;12.970;2023-12-14T04:10:25;17.97;;;10.07;;
3571;SDS011;7958;53.024;12.970;2023-12-14T04:12:51;19.23;;;9.97;;
3571;SDS011;7958;53.024;12.970;2023-12-14T04:15:18;17.50;;;9.20;;
3571;SDS011;7958;53.024;12.970;2023-12-14T04:17:44;23.20;;;10.60;;
3571;SDS011;7958;53.024;12.970;2023-12-14T04:20:11;20.40;;;10.90;;
3571;SDS011;7958;53.024;12.970;2023-12-14T04:22:42;18.97;;;9.83;;
3571;SDS011;7958;53.024;12.970;2023-12-14T04:25:09;15.80;;;9.00;;
3571;SDS011;7958;53.024;12.970;2023-12-14T04:27:36;22.47;;;10.53;;
3571;SDS011;7958;53.024;12.970;2023-12-14T04:30:02;22.10;;;10.23;;
3571;SDS011;7958;53.024;12.970;2023-12-14T04:32:30;19.90;;;10.77;;
3571;SDS011;7958;53.024;12.970;2023-12-14T04:34:57;17.80;;;9.90;;
3571;SDS011;7958;53.024;12.970;2023-12-14T04:37:23;17.30;;;9.37;;
3571;SDS011;7958;53.024;12.970;2023-12-14T04:39:51;24.23;;;11.47;;
3571;SDS011;7958;53.024;12.970;2023-12-14T04:42:17;21.50;;;11.33;;
3571;SDS011;7958;53.024;12.970;2023-12-14T04:44:43;17.93;;;9.70;;
3571;SDS011;7958;53.024;12.970;2023-12-14T04:47:10;19.53;;;9.70;;
3571;SDS011;7958;53.024;12.970;2023-12-14T04:49:36;16.70;;;9.00;;
3571;SDS011;7958;53.024;12.970;2023-12-14T04:52:02;18.30;;;9.67;;
3571;SDS011;7958;53.024;12.970;2023-12-14T04:54:29;21.77;;;9.93;;
3571;SDS011;7958;53.024;12.970;2023-12-14T04:56:57;17.20;;;9.80;;
3571;SDS011;7958;53.024;12.970;2023-12-14T04:59:23;18.17;;;9.63;;
3571;SDS011;7958;53.024;12.970;2023-12-14T05:01:50;16.23;;;9.47;;
3571;SDS011;7958;53.024;12.970;2023-12-14T05:04:16;17.73;;;9.70;;
3571;SDS011;7958;53.024;12.970;2023-12-14T05:06:42;22.40;;;9.70;;
3571;SDS011;7958;53.024;12.970;2023-12-14T05:09:09;14.13;;;8.93;;
3571;SDS011;7958;53.024;12.970;2023-12-14T05:11:36;19.50;;;9.43;;
3571;SDS011;7958;53.024;12.970;2023-12-14T05:14:04;14.97;;;8.90;;
3571;SDS011;7958;53.024;12.970;2023-12-14T05:16:31;18.13;;;9.80;;
3571;SDS011;7958;53.024;12.970;2023-12-14T05:18:57;17.70;;;11.13;;
3571;SDS011;7958;53.024;12.970;2023-12-14T05:21:24;16.33;;;9.67;;
3571;SDS011;7958;53.024;12.970;2023-12-14T05:23:50;17.17;;;9.67;;
3571;SDS011;7958;53.024;12.970;2023-12-14T05:26:16;18.77;;;10.03;;
3571;SDS011;7958;53.024;12.970;2023-12-14T05:28:43;17.97;;;10.00;;
3571;SDS011;7958;53.024;12.970;2023-12-14T05:31:11;22.20;;;9.77;;
3571;SDS011;7958;53.024;12.970;2023-12-14T05:33:37;18.07;;;9.90;;
3571;SDS011;7958;53.024;12.970;2023-12-14T05:36:04;17.53;;;10.53;;
3571;SDS011;7958;53.024;12.970;2023-12-14T05:38:35;19.60;;;10.53;;
3571;SDS011;7958;53.024;12.970;2023-12-14T05:41:02;18.73;;;9.40;;
3571;SDS011;7958;53.024;12.970;2023-12-14T05:43:28;20.20;;;11.03;;
3571;SDS011;7958;53.024;12.970;2023-12-14T05:45:55;18.27;;;9.80;;
3571;SDS011;7958;53.024;12.970;2023-12-14T05:48:22;19.60;;;10.30;;
3571;SDS011;7958;53.024;12.970;2023-12-14T05:50:50;19.20;;;11.17;;
3571;SDS011;7958;53.024;12.970;2023-12-14T05:53:17;18.37;;;10.37;;
3571;SDS011;7958;53.024;12.970;2023-12-14T05:55:43;18.73;;;10.73;;
3571;SDS011;7958;53.024;12.970;2023-12-14T05:58:17;19.90;;;11.07;;
3571;SDS011;7958;53.024;12.970;2023-12-14T06:00:44;18.87;;;11.47;;
3571;SDS011;7958;53.024;12.970;2023-12-14T06:03:11;24.70;;;11.10;;
3571;SDS011;7958;53.024;12.970;2023-12-14T06:05:38;19.50;;;11.27;;
3571;SDS011;7958;53.024;12.970;2023-12-14T06:08:05;24.53;;;11.13;;
3571;SDS011;7958;53.024;12.970;2023-12-14T06:10:32;22.60;;;11.27;;
3571;SDS011;7958;53.024;12.970;2023-12-14T06:12:58;18.97;;;10.70;;
3571;SDS011;7958;53.024;12.970;2023-12-14T06:15:24;22.30;;;12.20;;
3571;SDS011;7958;53.024;12.970;2023-12-14T06:17:51;17.23;;;10.00;;
3571;SDS011;7958;53.024;12.970;2023-12-14T06:20:17;20.13;;;11.73;;
3571;SDS011;7958;53.024;12.970;2023-12-14T06:22:45;22.50;;;10.83;;
3571;SDS011;7958;53.024;12.970;2023-12-14T06:25:11;19.63;;;10.50;;
3571;SDS011;7958;53.024;12.970;2023-12-14T06:27:38;15.87;;;9.60;;
3571;SDS011;7958;53.024;12.970;2023-12-14T06:30:04;16.30;;;10.60;;
3571;SDS011;7958;53.024;12.970;2023-12-14T06:32:33;18.00;;;10.77;;
3571;SDS011;7958;53.024;12.970;2023-12-14T06:35:00;13.97;;;9.30;;
3571;SDS011;7958;53.024;12.970;2023-12-14T06:37:27;15.67;;;10.10;;
3571;SDS011;7958;53.024;12.970;2023-12-14T06:39:55;19.83;;;10.57;;
3571;SDS011;7958;53.024;12.970;2023-12-14T06:42:21;17.07;;;10.10;;
3571;SDS011;7958;53.024;12.970;2023-12-14T06:44:48;15.10;;;9.27;;
3571;SDS011;7958;53.024;12.970;2023-12-14T06:47:14;15.80;;;8.20;;
3571;SDS011;7958;53.024;12.970;2023-12-14T06:49:41;12.30;;;8.07;;
3571;SDS011;7958;53.024;12.970;2023-12-14T06:52:07;15.30;;;8.53;;
3571;SDS011;7958;53.024;12.970;2023-12-14T06:54:34;17.67;;;9.37;;
3571;SDS011;7958;53.024;12.970;2023-12-14T06:57:02;16.07;;;8.60;;
3571;SDS011;7958;53.024;12.970;2023-12-14T06:59:29;16.33;;;9.23;;
3571;SDS011;7958;53.024;12.970;2023-12-14T07:01:55;11.50;;;8.50;;
3571;SDS011;7958;53.024;12.970;2023-12-14T07:04:21;14.03;;;8.33;;
3571;SDS011;7958;53.024;12.970;2023-12-14T07:06:51;12.33;;;8.20;;
3571;SDS011;7958;53.024;12.970;2023-12-14T07:09:17;11.90;;;8.00;;
3571;SDS011;7958;53.024;12.970;2023-12-14T07:11:44;12.00;;;7.77;;
3571;SDS011;7958;53.024;12.970;2023-12-14T07:14:12;11.20;;;7.37;;
3571;SDS011;7958;53.024;12.970;2023-12-14T07:16:39;10.30;;;7.30;;
3571;SDS011;7958;53.024;12.970;2023-12-14T07:19:06;11.30;;;6.60;;
3571;SDS011;7958;53.024;12.970;2023-12-14T07:21:32;14.63;;;7.50;;
3571;SDS011;7958;53.024;12.970;2023-12-14T07:23:59;14.80;;;8.60;;
3571;SDS011;7958;53.024;12.970;2023-12-14T07:26:25;11.97;;;7.60;;
3571;SDS011;7958;53.024;12.970;2023-12-14T07:31:20;11.00;;;7.30;;
3571;SDS011;7958;53.024;12.970;2023-12-14T07:33:47;10.63;;;7.10;;
3571;SDS011;7958;53.024;12.970;2023-12-14T07:36:14;10.00;;;7.13;;
3571;SDS011;7958;53.024;12.970;2023-12-14T07:38:43;14.33;;;7.50;;
3571;SDS011;7958;53.024;12.970;2023-12-14T07:41:09;15.63;;;8.07;;
3571;SDS011;7958;53.024;12.970;2023-12-14T07:43:36;12.00;;;7.80;;
3571;SDS011;7958;53.024;12.970;2023-12-14T07:46:03;13.17;;;7.73;;
3571;SDS011;7958;53.024;12.970;2023-12-14T07:48:31;11.20;;;7.43;;
3571;SDS011;7958;53.024;12.970;2023-12-14T07:50:57;10.93;;;7.30;;
3571;SDS011;7958;53.024;12.970;2023-12-14T07:53:24;11.80;;;7.70;;
3571;SDS011;7958;53.024;12.970;2023-12-14T07:55:53;12.17;;;7.60;;
3571;SDS011;7958;53.024;12.970;2023-12-14T07:58:28;14.07;;;7.80;;
3571;SDS011;7958;53.024;12.970;2023-12-14T08:00:55;13.07;;;7.00;;
3571;SDS011;7958;53.024;12.970;2023-12-14T08:03:22;11.80;;;7.70;;
3571;SDS011;7958;53.024;12.970;2023-12-14T08:05:50;15.53;;;7.30;;
3571;SDS011;7958;53.024;12.970;2023-12-14T08:08:16;14.13;;;8.00;;
3571;SDS011;7958;53.024;12.970;2023-12-14T08:10:43;13.30;;;7.27;;
3571;SDS011;7958;53.024;12.970;2023-12-14T08:13:10;10.67;;;7.73;;
3571;SDS011;7958;53.024;12.970;2023-12-14T08:15:36;13.27;;;7.80;;
3571;SDS011;7958;53.024;12.970;2023-12-14T08:18:03;12.03;;;7.87;;
3571;SDS011;7958;53.024;12.970;2023-12-14T08:20:29;15.13;;;7.60;;
3571;SDS011;7958;53.024;12.970;2023-12-14T08:22:57;12.53;;;6.93;;
3571;SDS011;7958;53.024;12.970;2023-12-14T08:25:25;11.80;;;7.10;;
3571;SDS011;7958;53.024;12.970;2023-12-14T08:27:52;14.90;;;7.60;;
3571;SDS011;7958;53.024;12.970;2023-12-14T08:30:18;11.23;;;7.20;;
3571;SDS011;7958;53.024;12.970;2023-12-14T08:32:44;13.27;;;7.43;;
3571;SDS011;7958;53.024;12.970;2023-12-14T08:35:11;10.67;;;7.03;;
3571;SDS011;7958;53.024;12.970;2023-12-14T08:37:37;14.50;;;8.50;;
3571;SDS011;7958;53.024;12.970;2023-12-14T08:40:06;11.83;;;7.70;;
3571;SDS011;7958;53.024;12.970;2023-12-14T08:42:35;13.30;;;6.83;;
3571;SDS011;7958;53.024;12.970;2023-12-14T08:45:01;11.10;;;6.67;;
3571;SDS011;7958;53.024;12.970;2023-12-14T08:47:28;10.80;;;7.03;;
3571;SDS011;7958;53.024;12.970;2023-12-14T08:49:54;11.30;;;7.37;;
3571;SDS011;7958;53.024;12.970;2023-12-14T08:52:20;10.80;;;7.40;;
3571;SDS011;7958;53.024;12.970;2023-12-14T08:54:47;14.13;;;6.80;;
3571;SDS011;7958;53.024;12.970;2023-12-14T08:57:15;12.70;;;7.67;;
3571;SDS011;7958;53.024;12.970;2023-12-14T08:59:41;11.57;;;7.13;;
3571;SDS011;7958;53.024;12.970;2023-12-14T09:02:08;16.87;;;6.70;;
3571;SDS011;7958;53.024;12.970;2023-12-14T09:04:34;13.80;;;7.40;;
3571;SDS011;7958;53.024;12.970;2023-12-14T09:07:02;10.97;;;7.50;;
3571;SDS011;7958;53.024;12.970;2023-12-14T09:09:30;12.03;;;7.23;;
3571;SDS011;7958;53.024;12.970;2023-12-14T09:11:57;8.43;;;5.50;;
3571;SDS011;7958;53.024;12.970;2023-12-14T09:14:25;11.70;;;6.70;;
3571;SDS011;7958;53.024;12.970;2023-12-14T09:16:51;9.37;;;6.13;;
3571;SDS011;7958;53.024;12.970;2023-12-14T09:19:18;10.67;;;6.70;;
3571;SDS011;7958;53.024;12.970;2023-12-14T09:21:44;14.67;;;7.33;;
3571;SDS011;7958;53.024;12.970;2023-12-14T09:24:11;9.17;;;6.37;;
3571;SDS011;7958;53.024;12.970;2023-12-14T09:26:37;9.80;;;6.60;;
3571;SDS011;7958;53.024;12.970;2023-12-14T09:29:04;13.00;;;6.50;;
3571;SDS011;7958;53.024;12.970;2023-12-14T09:31:33;9.83;;;6.37;;
3571;SDS011;7958;53.024;12.970;2023-12-14T09:33:59;8.90;;;6.07;;
3571;SDS011;7958;53.024;12.970;2023-12-14T09:36:30;13.57;;;6.87;;
3571;SDS011;7958;53.024;12.970;2023-12-14T09:38:56;10.77;;;6.67;;
3571;SDS011;7958;53.024;12.970;2023-12-14T09:41:23;10.17;;;6.10;;
3571;SDS011;7958;53.024;12.970;2023-12-14T09:43:49;8.40;;;5.50;;
3571;SDS011;7958;53.024;12.970;2023-12-14T09:46:16;10.07;;;6.27;;
3571;SDS011;7958;53.024;12.970;2023-12-14T09:48:44;11.37;;;6.40;;
3571;SDS011;7958;53.024;12.970;2023-12-14T09:51:11;10.43;;;7.07;;
3571;SDS011;7958;53.024;12.970;2023-12-14T09:53:38;9.60;;;6.47;;
3571;SDS011;7958;53.024;12.970;2023-12-14T09:56:05;12.70;;;6.90;;
3571;SDS011;7958;53.024;12.970;2023-12-14T09:58:32;8.07;;;5.83;;
3571;SDS011;7958;53.024;12.970;2023-12-14T10:01:11;8.60;;;6.10;;
3571;SDS011;7958;53.024;12.970;2023-12-14T10:03:48;12.97;;;7.57;;
3571;SDS011;7958;53.024;12.970;2023-12-14T10:06:13;10.60;;;6.50;;
3571;SDS011;7958;53.024;12.970;2023-12-14T10:08:41;13.20;;;6.40;;
3571;SDS011;7958;53.024;12.970;2023-12-14T10:11:20;8.40;;;6.73;;
3571;SDS011;7958;53.024;12.970;2023-12-14T10:13:47;13.40;;;6.97;;
3571;SDS011;7958;53.024;12.970;2023-12-14T10:16:21;13.30;;;7.20;;
3571;SDS011;7958;53.024;12.970;2023-12-14T10:18:57;10.83;;;6.20;;
3571;SDS011;7958;53.024;12.970;2023-12-14T10:21:24;11.30;;;7.43;;
3571;SDS011;7958;53.024;12.970;2023-12-14T10:23:51;16.40;;;10.20;;
3571;SDS011;7958;53.024;12.970;2023-12-14T10:26:18;13.13;;;9.10;;
3571;SDS011;7958;53.024;12.970;2023-12-14T10:28:46;8.37;;;6.40;;
3571;SDS011;7958;53.024;12.970;2023-12-14T10:31:12;7.60;;;5.57;;
3571;SDS011;7958;53.024;12.970;2023-12-14T10:33:40;10.17;;;6.60;;
3571;SDS011;7958;53.024;12.970;2023-12-14T10:36:08;10.50;;;6.10;;
3571;SDS011;7958;53.024;12.970;2023-12-14T10:38:36;11.90;;;5.90;;
3571;SDS011;7958;53.024;12.970;2023-12-14T10:41:04;9.67;;;6.87;;
3571;SDS011;7958;53.024;12.970;2023-12-14T10:43:32;18.23;;;11.87;;
3571;SDS011;7958;53.024;12.970;2023-12-14T10:46:01;13.13;;;7.90;;
3571;SDS011;7958;53.024;12.970;2023-12-14T10:48:34;9.37;;;5.83;;
3571;SDS011;7958;53.024;12.970;2023-12-14T10:51:01;7.57;;;5.80;;
3571;SDS011;7958;53.024;12.970;2023-12-14T10:53:29;10.90;;;7.63;;
3571;SDS011;7958;53.024;12.970;2023-12-14T10:55:59;11.80;;;6.70;;
3571;SDS011;7958;53.024;12.970;2023-12-14T10:58:26;9.20;;;6.20;;
3571;SDS011;7958;53.024;12.970;2023-12-14T11:01:00;7.70;;;5.80;;
3571;SDS011;7958;53.024;12.970;2023-12-14T11:03:30;8.07;;;5.63;;
3571;SDS011;7958;53.024;12.970;2023-12-14T11:05:59;8.60;;;5.70;;
3571;SDS011;7958;53.024;12.970;2023-12-14T11:08:26;7.73;;;4.77;;
3571;SDS011;7958;53.024;12.970;2023-12-14T11:10:54;8.43;;;5.30;;
3571;SDS011;7958;53.024;12.970;2023-12-14T11:13:21;9.30;;;6.10;;
3571;SDS011;7958;53.024;12.970;2023-12-14T11:15:48;10.77;;;6.33;;
3571;SDS011;7958;53.024;12.970;2023-12-14T11:18:24;11.47;;;5.80;;
3571;SDS011;7958;53.024;12.970;2023-12-14T11:21:05;10.50;;;6.60;;
3571;SDS011;7958;53.024;12.970;2023-12-14T11:23:33;8.67;;;5.60;;
3571;SDS011;7958;53.024;12.970;2023-12-14T11:26:04;8.00;;;5.30;;
3571;SDS011;7958;53.024;12.970;2023-12-14T11:28:31;10.50;;;6.10;;
3571;SDS011;7958;53.024;12.970;2023-12-14T11:30:59;11.13;;;6.40;;
3571;SDS011;7958;53.024;12.970;2023-12-14T11:33:27;8.70;;;6.10;;
3571;SDS011;7958;53.024;12.970;2023-12-14T11:35:54;8.57;;;5.93;;
3571;SDS011;7958;53.024;12.970;2023-12-14T11:38:21;8.03;;;5.30;;
3571;SDS011;7958;53.024;12.970;2023-12-14T11:40:49;6.77;;;5.53;;
3571;SDS011;7958;53.024;12.970;2023-12-14T11:43:16;7.17;;;5.40;;
3571;SDS011;7958;53.024;12.970;2023-12-14T11:45:45;9.27;;;6.20;;
3571;SDS011;7958;53.024;12.970;2023-12-14T11:48:12;9.87;;;6.80;;
3571;SDS011;7958;53.024;12.970;2023-12-14T11:50:39;12.60;;;7.83;;
3571;SDS011;7958;53.024;12.970;2023-12-14T11:53:07;18.23;;;9.90;;
3571;SDS011;7958;53.024;12.970;2023-12-14T11:55:40;27.77;;;16.93;;
3571;SDS011;7958;53.024;12.970;2023-12-14T11:58:07;20.03;;;11.63;;
3571;SDS011;7958;53.024;12.970;2023-12-14T12:00:35;20.30;;;13.30;;
3571;SDS011;7958;53.024;12.970;2023-12-14T12:03:11;32.00;;;19.77;;
3571;SDS011;7958;53.024;12.970;2023-12-14T12:05:40;25.80;;;15.33;;
3571;SDS011;7958;53.024;12.970;2023-12-14T12:08:07;28.53;;;17.43;;
3571;SDS011;7958;53.024;12.970;2023-12-14T12:10:34;23.77;;;13.53;;
3571;SDS011;7958;53.024;12.970;2023-12-14T12:13:01;19.80;;;11.40;;
3571;SDS011;7958;53.024;12.970;2023-12-14T12:15:30;21.13;;;11.60;;
3571;SDS011;7958;53.024;12.970;2023-12-14T12:20:40;9.40;;;7.30;;
3571;SDS011;7958;53.024;12.970;2023-12-14T12:23:07;8.60;;;6.33;;
3571;SDS011;7958;53.024;12.970;2023-12-14T12:25:33;10.90;;;6.87;;
3571;SDS011;7958;53.024;12.970;2023-12-14T12:28:01;12.40;;;8.43;;
3571;SDS011;7958;53.024;12.970;2023-12-14T12:30:28;13.63;;;8.20;;
3571;SDS011;7958;53.024;12.970;2023-12-14T12:32:55;9.30;;;7.33;;
3571;SDS011;7958;53.024;12.970;2023-12-14T12:35:22;11.60;;;7.00;;
3571;SDS011;7958;53.024;12.970;2023-12-14T12:37:51;13.80;;;8.00;;
3571;SDS011;7958;53.024;12.970;2023-12-14T12:40:19;12.40;;;8.20;;
3571;SDS011;7958;53.024;12.970;2023-12-14T12:42:46;10.20;;;6.70;;
3571;SDS011;7958;53.024;12.970;2023-12-14T12:45:14;14.10;;;8.20;;
3571;SDS011;7958;53.024;12.970;2023-12-14T12:47:42;8.10;;;6.20;;
3571;SDS011;7958;53.024;12.970;2023-12-14T12:50:09;6.30;;;4.50;;
3571;SDS011;7958;53.024;12.970;2023-12-14T12:52:36;11.10;;;9.20;;
3571;SDS011;7958;53.024;12.970;2023-12-14T12:55:05;14.77;;;8.10;;
3571;SDS011;7958;53.024;12.970;2023-12-14T12:57:32;9.70;;;5.67;;
3571;SDS011;7958;53.024;12.970;2023-12-14T12:59:58;10.30;;;6.20;;
3571;SDS011;7958;53.024;12.970;2023-12-14T13:02:24;7.60;;;5.47;;
3571;SDS011;7958;53.024;12.970;2023-12-14T13:04:51;8.53;;;5.27;;
3571;SDS011;7958;53.024;12.970;2023-12-14T13:07:18;8.50;;;5.60;;
3571;SDS011;7958;53.024;12.970;2023-12-14T13:09:44;9.30;;;6.20;;
3571;SDS011;7958;53.024;12.970;2023-12-14T13:12:12;15.03;;;7.03;;
3571;SDS011;7958;53.024;12.970;2023-12-14T13:14:39;10.10;;;6.27;;
3571;SDS011;7958;53.024;12.970;2023-12-14T13:17:06;9.40;;;6.27;;
3571;SDS011;7958;53.024;12.970;2023-12-14T13:19:32;9.47;;;5.30;;
3571;SDS011;7958;53.024;12.970;2023-12-14T13:21:59;8.47;;;5.87;;
3571;SDS011;7958;53.024;12.970;2023-12-14T13:24:26;9.77;;;5.80;;
3571;SDS011;7958;53.024;12.970;2023-12-14T13:26:54;9.57;;;5.70;;
3571;SDS011;7958;53.024;12.970;2023-12-14T13:29:22;8.00;;;5.17;;
3571;SDS011;7958;53.024;12.970;2023-12-14T13:31:48;6.83;;;5.10;;
3571;SDS011;7958;53.024;12.970;2023-12-14T13:34:15;6.20;;;4.60;;
3571;SDS011;7958;53.024;12.970;2023-12-14T13:36:41;7.93;;;4.90;;
3571;SDS011;7958;53.024;12.970;2023-12-14T13:39:07;14.13;;;7.60;;
3571;SDS011;7958;53.024;12.970;2023-12-14T13:41:34;9.30;;;5.57;;
3571;SDS011;7958;53.024;12.970;2023-12-14T13:44:01;10.47;;;6.70;;
3571;SDS011;7958;53.024;12.970;2023-12-14T13:46:29;10.53;;;6.77;;
3571;SDS011;7958;53.024;12.970;2023-12-14T13:48:55;10.90;;;6.37;;
3571;SDS011;7958;53.024;12.970;2023-12-14T13:51:21;10.23;;;6.47;;
3571;SDS011;7958;53.024;12.970;2023-12-14T13:53:48;7.43;;;5.13;;
3571;SDS011;7958;53.024;12.970;2023-12-14T13:56:14;11.40;;;6.37;;
3571;SDS011;7958;53.024;12.970;2023-12-14T13:58:40;14.93;;;8.03;;
3571;SDS011;7958;53.024;12.970;2023-12-14T14:01:08;11.30;;;6.67;;
3571;SDS011;7958;53.024;12.970;2023-12-14T14:03:36;9.70;;;6.03;;
3571;SDS011;7958;53.024;12.970;2023-12-14T14:06:03;10.07;;;6.10;;
3571;SDS011;7958;53.024;12.970;2023-12-14T14:08:30;9.50;;;5.40;;
3571;SDS011;7958;53.024;12.970;2023-12-14T14:10:57;9.33;;;6.03;;
3571;SDS011;7958;53.024;12.970;2023-12-14T14:13:23;9.53;;;6.50;;
3571;SDS011;7958;53.024;12.970;2023-12-14T14:15:50;9.83;;;5.50;;
3571;SDS011;7958;53.024;12.970;2023-12-14T14:18:15;12.23;;;6.90;;
3571;SDS011;7958;53.024;12.970;2023-12-14T14:20:43;10.83;;;7.00;;
3571;SDS011;7958;53.024;12.970;2023-12-14T14:23:10;12.93;;;7.83;;
3571;SDS011;7958;53.024;12.970;2023-12-14T14:25:36;15.77;;;7.70;;
3571;SDS011;7958;53.024;12.970;2023-12-14T14:28:03;10.43;;;7.07;;
3571;SDS011;7958;53.024;12.970;2023-12-14T14:30:30;12.30;;;7.67;;
3571;SDS011;7958;53.024;12.970;2023-12-14T14:32:56;15.50;;;8.97;;
3571;SDS011;7958;53.024;12.970;2023-12-14T14:35:23;13.90;;;8.47;;
3571;SDS011;7958;53.024;12.970;2023-12-14T14:37:51;9.10;;;6.70;;
3571;SDS011;7958;53.024;12.970;2023-12-14T14:40:17;10.20;;;7.07;;
3571;SDS011;7958;53.024;12.970;2023-12-14T14:42:43;8.73;;;5.80;;
3571;SDS011;7958;53.024;12.970;2023-12-14T14:45:10;12.27;;;6.70;;
3571;SDS011;7958;53.024;12.970;2023-12-14T14:47:37;16.77;;;6.90;;
3571;SDS011;7958;53.024;12.970;2023-12-14T14:50:05;10.37;;;7.40;;
3571;SDS011;7958;53.024;12.970;2023-12-14T14:52:32;15.17;;;8.47;;